createdAt,value
2022-08-03T00:01:36.974Z,2.20
2022-08-03T00:04:39.562Z,2.30
2022-08-03T00:07:41.906Z,2.87
2022-08-03T00:10:44.656Z,2.12
2022-08-03T00:13:47.222Z,2.15
2022-08-03T00:16:49.808Z,2.53
2022-08-03T00:19:52.132Z,3.10
2022-08-03T00:22:54.750Z,2.70
2022-08-03T00:25:57.418Z,2.83
2022-08-03T00:29:00.037Z,2.40
2022-08-03T00:32:02.333Z,2.78
2022-08-03T00:35:09.310Z,3.60
2022-08-03T00:38:13.730Z,2.47
2022-08-03T00:41:16.318Z,2.65
2022-08-03T00:44:18.686Z,3.23
2022-08-03T00:47:21.280Z,2.42
2022-08-03T00:50:25.770Z,2.95
2022-08-03T00:53:28.712Z,3.45
2022-08-03T00:56:31.119Z,2.75
2022-08-03T00:59:34.579Z,2.65
2022-08-03T01:02:39.155Z,3.12
2022-08-03T01:05:51.546Z,2.97
2022-08-03T01:09:43.843Z,3.72
2022-08-03T01:14:01.124Z,2.85
2022-08-03T01:17:07.952Z,3.75
2022-08-03T01:23:49.011Z,3.22
2022-08-03T01:27:08.972Z,3.00
2022-08-03T01:30:12.578Z,3.05
2022-08-03T01:33:28.342Z,3.17
2022-08-03T01:36:36.462Z,3.45
2022-08-03T01:39:41.051Z,3.58
2022-08-03T01:42:45.506Z,3.53
2022-08-03T01:45:49.707Z,3.55
2022-08-03T01:48:53.692Z,3.67
2022-08-03T01:52:04.611Z,3.40
2022-08-03T01:55:10.570Z,3.45
2022-08-03T01:58:17.443Z,3.90
2022-08-03T02:01:23.218Z,3.90
2022-08-03T02:04:28.164Z,4.35
2022-08-03T02:07:32.936Z,3.90
2022-08-03T02:10:37.764Z,4.10
2022-08-03T02:13:41.488Z,3.85
2022-08-03T02:16:46.015Z,4.22
2022-08-03T02:19:50.605Z,3.95
2022-08-03T02:22:53.705Z,4.80
2022-08-03T02:26:03.090Z,4.65
2022-08-03T02:29:12.214Z,3.92
2022-08-03T02:32:20.390Z,4.55
2022-08-03T02:35:26.309Z,4.57
2022-08-03T02:38:33.687Z,4.07
2022-08-03T02:41:45.683Z,4.35
2022-08-03T02:44:51.060Z,4.33
2022-08-03T02:47:58.173Z,4.53
2022-08-03T02:51:03.863Z,3.75
2022-08-03T02:54:09.415Z,4.47
2022-08-03T02:57:14.130Z,4.55
2022-08-03T03:00:19.936Z,4.07
2022-08-03T03:03:31.892Z,4.45
2022-08-03T03:06:44.058Z,4.40
2022-08-03T03:09:50.485Z,4.37
2022-08-03T03:12:57.959Z,5.03
2022-08-03T03:16:02.543Z,4.65
2022-08-03T03:19:05.676Z,4.95
2022-08-03T03:22:08.544Z,4.95
2022-08-03T03:28:14.479Z,4.85
2022-08-03T03:31:17.182Z,4.37
2022-08-03T03:34:19.900Z,4.75
2022-08-03T03:40:25.622Z,4.05
2022-08-03T03:43:29.438Z,4.45
2022-08-03T03:46:32.011Z,5.05
2022-08-03T03:49:34.947Z,4.40
2022-08-03T03:52:37.603Z,5.35
2022-08-03T03:55:59.317Z,5.43
2022-08-03T03:59:03.517Z,5.12
2022-08-03T04:02:07.957Z,5.05
2022-08-03T04:05:29.412Z,5.30
2022-08-03T04:08:50.683Z,4.85
2022-08-03T04:11:58.652Z,5.22
2022-08-03T04:15:03.246Z,5.35
2022-08-03T04:18:09.687Z,5.32
2022-08-03T04:21:14.151Z,6.00
2022-08-03T04:24:18.618Z,4.72
2022-08-03T04:27:23.366Z,5.82
2022-08-03T04:30:29.989Z,4.93
2022-08-03T04:33:34.913Z,5.22
2022-08-03T04:36:44.749Z,4.75
2022-08-03T04:39:50.141Z,5.12
2022-08-03T04:42:55.822Z,5.35
2022-08-03T04:45:59.365Z,5.28
2022-08-03T04:49:02.747Z,4.95
2022-08-03T04:55:10.170Z,4.65
2022-08-03T04:58:12.759Z,5.07
2022-08-03T05:01:16.725Z,5.20
2022-08-03T05:04:20.563Z,4.87
2022-08-03T05:07:25.195Z,4.35
2022-08-03T05:10:27.969Z,5.10
2022-08-03T05:13:30.732Z,5.95
2022-08-03T05:16:33.211Z,5.55
2022-08-03T05:19:35.967Z,5.35
2022-08-03T05:22:38.332Z,5.03
2022-08-03T05:25:49.723Z,4.65
2022-08-03T05:28:53.458Z,5.70
2022-08-03T05:31:56.442Z,5.28
2022-08-03T05:38:28.337Z,6.12
2022-08-03T05:41:36.841Z,4.87
2022-08-03T05:44:40.383Z,5.50
2022-08-03T05:47:44.366Z,5.30
2022-08-03T05:50:47.249Z,4.35
2022-08-03T05:53:49.672Z,4.82
2022-08-03T05:56:52.370Z,4.60
2022-08-03T05:59:58.327Z,4.65
2022-08-03T06:03:02.387Z,4.53
2022-08-03T06:06:05.131Z,4.80
2022-08-03T06:09:07.673Z,4.18
2022-08-03T06:12:14.052Z,4.43
2022-08-03T06:15:18.765Z,4.60
2022-08-03T06:18:21.635Z,4.40
2022-08-03T06:21:23.993Z,4.93
2022-08-03T06:24:30.013Z,4.45
2022-08-03T06:27:37.210Z,5.47
2022-08-03T06:30:40.893Z,5.07
2022-08-03T06:37:05.934Z,5.12
2022-08-03T06:40:31.437Z,5.80
2022-08-03T06:43:37.601Z,4.87
2022-08-03T06:46:40.806Z,5.90
2022-08-03T06:49:43.610Z,5.40
2022-08-03T06:53:06.124Z,6.15
2022-08-03T06:56:08.736Z,6.18
2022-08-03T07:00:06.109Z,5.53
2022-08-03T07:02:33.920Z,5.72
2022-08-03T07:05:36.376Z,4.85
2022-08-03T07:08:39.074Z,6.18
2022-08-03T07:11:41.452Z,5.25
2022-08-03T07:14:44.195Z,5.95
2022-08-03T07:17:46.614Z,5.65
2022-08-03T07:20:51.213Z,6.03
2022-08-03T07:23:54.192Z,6.72
2022-08-03T07:26:56.874Z,6.32
2022-08-03T07:30:00.245Z,4.93
2022-08-03T07:33:02.911Z,6.10
2022-08-03T07:36:05.351Z,5.62
2022-08-03T07:42:20.538Z,5.95
2022-08-03T07:45:23.828Z,6.45
2022-08-03T07:48:26.232Z,5.18
2022-08-03T07:51:28.991Z,6.22
2022-08-03T07:54:32.033Z,5.68
2022-08-03T07:57:35.342Z,6.20
2022-08-03T08:00:39.401Z,5.60
2022-08-03T08:03:52.784Z,6.32
2022-08-03T08:06:55.918Z,6.35
2022-08-03T08:09:58.961Z,6.12
2022-08-03T08:13:01.814Z,5.55
2022-08-03T08:16:05.310Z,5.60
2022-08-03T08:19:08.504Z,5.55
2022-08-03T08:22:13.475Z,6.20
2022-08-03T08:25:19.473Z,5.25
2022-08-03T08:28:30.573Z,5.70
2022-08-03T08:31:34.498Z,5.72
2022-08-03T08:34:37.253Z,5.68
2022-08-03T08:37:40.644Z,5.25
2022-08-03T08:40:45.218Z,5.45
2022-08-03T08:43:47.602Z,6.32
2022-08-03T08:50:09.416Z,5.30
2022-08-03T08:53:18.189Z,6.25
2022-08-03T08:56:25.485Z,5.72
2022-08-03T08:59:47.834Z,6.15
2022-08-03T09:02:50.970Z,5.65
2022-08-03T09:05:56.035Z,5.40
2022-08-03T09:08:58.906Z,5.62
2022-08-03T09:12:35.026Z,5.47
2022-08-03T09:15:27.002Z,6.22
2022-08-03T09:18:33.372Z,6.15
2022-08-03T09:21:35.806Z,5.12
2022-08-03T09:25:14.780Z,5.30
2022-08-03T09:28:53.973Z,4.95
2022-08-03T09:31:47.443Z,5.53
2022-08-03T09:34:55.248Z,5.93
2022-08-03T09:38:29.995Z,5.07
2022-08-03T09:41:33.609Z,4.00
2022-08-03T09:44:38.653Z,4.75
2022-08-03T09:47:45.015Z,4.07
2022-08-03T09:50:56.973Z,4.62
2022-08-03T09:54:03.921Z,5.25
2022-08-03T09:57:06.769Z,5.05
2022-08-03T10:00:16.356Z,5.00
2022-08-03T10:03:19.201Z,4.65
2022-08-03T10:09:32.114Z,4.65
2022-08-03T10:12:34.688Z,4.78
2022-08-03T10:16:23.007Z,4.90
2022-08-03T10:19:05.254Z,4.70
2022-08-03T10:22:14.602Z,4.53
2022-08-03T10:25:18.087Z,4.37
2022-08-03T10:28:21.767Z,4.95
2022-08-03T10:31:25.048Z,4.72
2022-08-03T10:34:33.938Z,4.62
2022-08-03T10:37:57.025Z,5.40
2022-08-03T10:41:02.976Z,5.10
2022-08-03T10:44:18.922Z,4.93
2022-08-03T10:47:21.856Z,5.15
2022-08-03T10:50:26.885Z,5.12
2022-08-03T10:53:44.014Z,4.43
2022-08-03T10:57:14.421Z,5.25
2022-08-03T11:00:23.921Z,4.53
2022-08-03T11:03:32.923Z,4.22
2022-08-03T11:06:37.611Z,5.32
2022-08-03T11:09:47.695Z,4.37
2022-08-03T11:12:50.987Z,3.75
2022-08-03T11:15:59.825Z,5.18
2022-08-03T11:19:10.565Z,4.20
2022-08-03T11:22:15.791Z,5.15
2022-08-03T11:25:53.893Z,4.90
2022-08-03T11:28:43.038Z,4.45
2022-08-03T11:31:50.194Z,4.43
2022-08-03T11:35:16.493Z,4.15
2022-08-03T11:38:24.503Z,4.95
2022-08-03T11:41:34.020Z,4.18
2022-08-03T11:44:48.093Z,5.97
2022-08-03T11:47:54.875Z,3.97
2022-08-03T11:50:57.499Z,4.68
2022-08-03T11:54:02.543Z,4.78
2022-08-03T11:57:05.220Z,4.80
2022-08-03T12:00:25.845Z,4.53
2022-08-03T12:03:33.562Z,4.50
2022-08-03T12:06:54.954Z,3.60
2022-08-03T12:10:12.319Z,4.37
2022-08-03T12:14:33.139Z,4.68
2022-08-03T12:16:38.350Z,4.47
2022-08-03T12:19:44.052Z,3.72
2022-08-03T12:22:46.781Z,4.80
2022-08-03T12:25:49.547Z,3.53
2022-08-03T12:28:52.487Z,3.95
2022-08-03T12:31:55.965Z,4.15
2022-08-03T12:35:01.355Z,4.82
2022-08-03T12:38:04.635Z,4.12
2022-08-03T12:41:16.660Z,5.00
2022-08-03T12:44:29.300Z,3.70
2022-08-03T12:47:53.141Z,4.45
2022-08-03T12:51:08.438Z,3.97
2022-08-03T12:54:24.750Z,3.90
2022-08-03T12:57:43.281Z,3.78
2022-08-03T13:00:55.869Z,4.55
2022-08-03T13:03:58.329Z,5.00
2022-08-03T13:07:06.500Z,3.80
2022-08-03T13:10:31.411Z,3.97
2022-08-03T13:13:39.945Z,4.30
2022-08-03T13:16:42.306Z,4.68
2022-08-03T13:19:46.294Z,4.37
2022-08-03T13:22:48.975Z,3.42
2022-08-03T13:25:55.262Z,3.60
2022-08-03T13:28:59.143Z,4.30
2022-08-03T13:32:03.323Z,4.50
2022-08-03T13:35:07.015Z,4.47
2022-08-03T13:38:09.886Z,4.00
2022-08-03T13:41:15.421Z,4.95
2022-08-03T13:44:29.152Z,4.05
2022-08-03T13:47:32.495Z,3.90
2022-08-03T13:50:39.780Z,4.57
2022-08-03T13:53:44.956Z,3.95
2022-08-03T13:56:52.882Z,3.40
2022-08-03T13:59:55.507Z,4.15
2022-08-03T14:03:13.701Z,4.43
2022-08-03T14:06:17.252Z,4.20
2022-08-03T14:12:22.265Z,4.30
2022-08-03T14:18:34.078Z,3.45
2022-08-03T14:21:36.642Z,3.83
2022-08-03T14:24:39.273Z,3.80
2022-08-03T14:30:44.336Z,4.40
2022-08-03T14:36:49.159Z,3.53
2022-08-03T14:40:00.306Z,3.90
2022-08-03T14:43:03.931Z,3.60
2022-08-03T14:46:06.934Z,3.85
2022-08-03T14:50:36.455Z,3.95
2022-08-03T14:52:32.666Z,4.22
2022-08-03T14:55:38.558Z,4.30
2022-08-03T14:58:42.459Z,3.47
2022-08-03T15:02:04.468Z,3.78
2022-08-03T15:05:08.028Z,3.58
2022-08-03T15:08:11.137Z,4.00
2022-08-03T15:11:13.520Z,4.25
2022-08-03T15:14:16.144Z,4.40
2022-08-03T15:17:18.726Z,3.72
2022-08-03T15:20:42.673Z,3.75
2022-08-03T15:23:45.986Z,3.65
2022-08-03T15:26:48.744Z,3.22
2022-08-03T15:30:05.758Z,3.35
2022-08-03T15:33:12.957Z,3.58
2022-08-03T15:36:15.536Z,4.80
2022-08-03T15:39:18.337Z,3.60
2022-08-03T15:42:20.802Z,3.30
2022-08-03T15:45:28.209Z,4.28
2022-08-03T15:48:38.183Z,4.22
